Time,TemperatureF,DewpointF,PressureIn,WindDirection,WindDirectionDegrees,WindSpeedMPH,WindSpeedGustMPH,Humidity,HourlyPrecipIn,Conditions,Clouds,dailyrainin,SoftwareType,DateUTC
2013-11-16 00:13:00,44.0,37.0,29.84,SSE,162,1.0,-999.0,75,-99.99,,,-99.99,,2013-11-16 06:13:00,
2013-11-16 00:22:00,43.0,36.0,29.85,ESE,103,2.0,-999.0,76,-99.99,,,-99.99,,2013-11-16 06:22:00,
2013-11-16 00:42:00,43.0,36.0,29.84,SSE,165,1.0,-999.0,77,-99.99,,,-99.99,,2013-11-16 06:42:00,
2013-11-16 00:52:00,43.0,37.0,29.84,SE,139,1.0,-999.0,79,-99.99,,,-99.99,,2013-11-16 06:52:00,
2013-11-16 01:22:00,42.0,37.0,29.84,SSE,159,1.0,-999.0,81,-99.99,,,-99.99,,2013-11-16 07:22:00,
2013-11-16 01:42:00,42.0,37.0,29.84,South,173,1.0,-999.0,82,-99.99,,,-99.99,,2013-11-16 07:42:00,
2013-11-16 01:52:00,42.0,37.0,29.83,SSE,150,1.0,-999.0,83,-99.99,,,-99.99,,2013-11-16 07:52:00,
2013-11-16 02:22:00,42.0,38.0,29.82,SE,145,1.0,-999.0,84,-99.99,,,-99.99,,2013-11-16 08:22:00,
2013-11-16 02:52:00,42.0,38.0,29.82,SSE,151,1.0,-999.0,86,-99.99,,,-99.99,,2013-11-16 08:52:00,
2013-11-16 03:11:00,42.0,38.0,29.83,SSE,163,2.0,-999.0,87,-99.99,,,-99.99,,2013-11-16 09:11:00,
2013-11-16 03:22:00,42.0,39.0,29.83,SSE,147,1.0,-999.0,88,-99.99,,,-99.99,,2013-11-16 09:22:00,
2013-11-16 03:42:00,42.0,39.0,29.83,South,180,0.0,-999.0,89,-99.99,,,-99.99,,2013-11-16 09:42:00,
2013-11-16 03:53:00,43.0,40.0,29.82,SSE,153,0.0,-999.0,90,-99.99,,,-99.99,,2013-11-16 09:53:00,
2013-11-16 04:23:00,43.0,41.0,29.80,SSE,153,1.0,-999.0,92,-99.99,,,-99.99,,2013-11-16 10:23:00,
2013-11-16 04:43:00,43.0,41.0,29.80,SSE,154,0.0,-999.0,93,-99.99,,,-99.99,,2013-11-16 10:43:00,
2013-11-16 04:52:00,44.0,42.0,29.80,SSE,156,0.0,-999.0,94,-99.99,,,-99.99,,2013-11-16 10:52:00,
2013-11-16 05:12:00,44.0,42.0,29.78,SSE,153,1.0,-999.0,94,-99.99,,,-99.99,,2013-11-16 11:12:00,
2013-11-16 05:22:00,44.0,42.0,29.77,ESE,112,0.0,-999.0,93,-99.99,,,-99.99,,2013-11-16 11:22:00,
2013-11-16 05:42:00,44.0,42.0,29.76,SSE,156,1.0,-999.0,92,-99.99,,,-99.99,,2013-11-16 11:42:00,
2013-11-16 05:53:00,45.0,43.0,29.75,SE,140,1.0,-999.0,92,-99.99,,,-99.99,,2013-11-16 11:53:00,
2013-11-16 06:12:00,45.0,43.0,29.75,SSE,153,0.0,-999.0,92,-99.99,,,-99.99,,2013-11-16 12:12:00,
2013-11-16 06:21:00,46.0,44.0,29.75,SE,134,0.0,-999.0,92,-99.99,,,-99.99,,2013-11-16 12:21:00,
2013-11-16 06:42:00,46.0,44.0,29.75,SSE,161,1.0,-999.0,91,-99.99,,,-99.99,,2013-11-16 12:42:00,
2013-11-16 06:52:00,47.0,45.0,29.73,SSE,157,3.0,-999.0,91,-99.99,,,-99.99,,2013-11-16 12:52:00,
2013-11-16 07:11:00,47.0,45.0,29.73,SSE,149,2.0,-999.0,91,-99.99,,,-99.99,,2013-11-16 13:11:00,
2013-11-16 07:22:00,48.0,45.0,29.72,ESE,115,4.0,-999.0,90,-99.99,,,-99.99,,2013-11-16 13:22:00,
2013-11-16 07:42:00,48.0,45.0,29.71,SSE,147,3.0,-999.0,90,-99.99,,,-99.99,,2013-11-16 13:42:00,
2013-11-16 07:52:00,48.0,45.0,29.71,SE,140,3.0,-999.0,90,-99.99,,,-99.99,,2013-11-16 13:52:00,
2013-11-16 08:11:00,49.0,46.0,29.71,SE,142,2.0,-999.0,89,-99.99,,,-99.99,,2013-11-16 14:11:00,
2013-11-16 08:22:00,49.0,46.0,29.70,SSE,148,3.0,-999.0,89,-99.99,,,-99.99,,2013-11-16 14:22:00,
2013-11-16 08:42:00,50.0,47.0,29.71,SSE,160,1.0,-999.0,89,-99.99,,,-99.99,,2013-11-16 14:42:00,
2013-11-16 08:52:00,49.0,46.0,29.71,SE,136,1.0,-999.0,89,-99.99,,,-99.99,,2013-11-16 14:52:00,
2013-11-16 09:21:00,50.0,47.0,29.70,SSE,152,1.0,-999.0,90,-99.99,,,-99.99,,2013-11-16 15:21:00,
2013-11-16 09:43:00,51.0,48.0,29.69,SE,134,3.0,-999.0,90,-99.99,,,-99.99,,2013-11-16 15:43:00,
2013-11-16 09:53:00,52.0,49.0,29.67,SSE,155,4.0,-999.0,89,-99.99,,,-99.99,,2013-11-16 15:53:00,
2013-11-16 10:23:00,52.0,49.0,29.66,ESE,122,4.0,-999.0,88,-99.99,,,-99.99,,2013-11-16 16:23:00,
2013-11-16 10:43:00,52.0,49.0,29.65,SE,125,4.0,-999.0,89,-99.99,,,-99.99,,2013-11-16 16:43:00,
2013-11-16 10:53:00,53.0,50.0,29.64,SE,136,4.0,-999.0,89,-99.99,,,-99.99,,2013-11-16 16:53:00,
2013-11-16 11:22:00,55.0,51.0,29.63,SSE,153,4.0,-999.0,87,-99.99,,,-99.99,,2013-11-16 17:22:00,
2013-11-16 11:43:00,55.0,51.0,29.62,SE,138,4.0,-999.0,87,-99.99,,,-99.99,,2013-11-16 17:43:00,
2013-11-16 11:52:00,55.0,51.0,29.60,SE,134,4.0,-999.0,87,-99.99,,,-99.99,,2013-11-16 17:52:00,
2013-11-16 12:12:00,56.0,52.0,29.59,South,175,5.0,-999.0,86,-99.99,,,-99.99,,2013-11-16 18:12:00,
2013-11-16 12:23:00,56.0,52.0,29.58,SSE,151,4.0,-999.0,88,-99.99,,,-99.99,,2013-11-16 18:23:00,
2013-11-16 12:42:00,55.0,52.0,29.57,SSE,162,5.0,-999.0,91,-99.99,,,-99.99,,2013-11-16 18:42:00,
2013-11-16 12:52:00,56.0,53.0,29.55,SSE,155,3.0,-999.0,91,-99.99,,,-99.99,,2013-11-16 18:52:00,
2013-11-16 13:12:00,57.0,54.0,29.54,South,173,5.0,-999.0,89,-99.99,,,-99.99,,2013-11-16 19:12:00,
2013-11-16 13:22:00,58.0,54.0,29.55,SSE,157,5.0,-999.0,88,-99.99,,,-99.99,,2013-11-16 19:22:00,
2013-11-16 13:42:00,58.0,54.0,29.53,SSE,163,5.0,-999.0,88,-99.99,,,-99.99,,2013-11-16 19:42:00,
2013-11-16 13:53:00,59.0,55.0,29.52,SSE,155,5.0,-999.0,86,-99.99,,,-99.99,,2013-11-16 19:53:00,
2013-11-16 14:22:00,59.0,54.0,29.49,SSW,196,6.0,-999.0,85,-99.99,,,-99.99,,2013-11-16 20:22:00,
2013-11-16 14:42:00,59.0,54.0,29.49,SSE,158,6.0,-999.0,85,-99.99,,,-99.99,,2013-11-16 20:42:00,
2013-11-16 15:22:00,59.0,55.0,29.48,South,170,5.0,-999.0,86,-99.99,,,-99.99,,2013-11-16 21:22:00,
2013-11-16 15:44:00,59.0,55.0,29.49,South,175,4.0,-999.0,86,-99.99,,,-99.99,,2013-11-16 21:44:00,
2013-11-16 15:54:00,59.0,55.0,29.49,SE,145,4.0,-999.0,86,-99.99,,,-99.99,,2013-11-16 21:54:00,
2013-11-16 16:13:00,59.0,55.0,29.49,SSE,162,5.0,-999.0,86,-99.99,,,-99.99,,2013-11-16 22:13:00,
2013-11-16 16:24:00,59.0,55.0,29.49,SSE,162,6.0,-999.0,86,-99.99,,,-99.99,,2013-11-16 22:24:00,
2013-11-16 16:42:00,59.0,55.0,29.49,SSE,153,5.0,-999.0,86,-99.99,,,-99.99,,2013-11-16 22:42:00,
2013-11-16 16:53:00,59.0,55.0,29.48,SSE,148,6.0,-999.0,86,-99.99,,,-99.99,,2013-11-16 22:53:00,
2013-11-16 17:22:00,59.0,55.0,29.48,SSE,158,5.0,-999.0,88,-99.99,,,-99.99,,2013-11-16 23:22:00,
2013-11-16 17:43:00,59.0,55.0,29.47,South,185,6.0,-999.0,88,-99.99,,,-99.99,,2013-11-16 23:43:00,
2013-11-16 17:53:00,58.0,54.0,29.47,SE,142,6.0,-999.0,87,-99.99,,,-99.99,,2013-11-16 23:53:00,
2013-11-16 18:12:00,58.0,54.0,29.47,SSE,154,6.0,-999.0,88,-99.99,,,-99.99,,2013-11-17 00:12:00,
2013-11-16 18:22:00,58.0,54.0,29.47,SSE,154,5.0,-999.0,88,-99.99,,,-99.99,,2013-11-17 00:22:00,
2013-11-16 18:42:00,58.0,54.0,29.48,SSE,166,4.0,-999.0,88,-99.99,,,-99.99,,2013-11-17 00:42:00,
2013-11-16 18:52:00,58.0,54.0,29.49,South,175,4.0,-999.0,88,-99.99,,,-99.99,,2013-11-17 00:52:00,
2013-11-16 19:22:00,58.0,54.0,29.49,SE,143,4.0,-999.0,88,-99.99,,,-99.99,,2013-11-17 01:22:00,
2013-11-16 19:52:00,58.0,55.0,29.50,South,181,5.0,-999.0,89,-99.99,,,-99.99,,2013-11-17 01:52:00,
2013-11-16 20:22:00,57.0,54.0,29.50,SSE,167,5.0,-999.0,89,-99.99,,,-99.99,,2013-11-17 02:22:00,
2013-11-16 20:52:00,57.0,54.0,29.49,SSE,161,4.0,-999.0,89,-99.99,,,-99.99,,2013-11-17 02:52:00,
2013-11-16 21:22:00,57.0,54.0,29.50,SSE,161,3.0,-999.0,90,-99.99,,,-99.99,,2013-11-17 03:22:00,
2013-11-16 21:56:00,57.0,54.0,29.49,South,178,4.0,-999.0,89,-99.99,,,-99.99,,2013-11-17 03:56:00,
2013-11-16 22:03:00,-999.0,-99.9,29.49,SW,214,4.0,-999.0,-999,-99.99,,,-99.99,,2013-11-17 04:03:00,
2013-11-16 22:24:00,57.0,54.0,29.49,SSW,194,4.0,-999.0,90,-99.99,,,-99.99,,2013-11-17 04:24:00,
2013-11-16 22:43:00,57.0,54.0,29.49,SSE,161,4.0,-999.0,90,-99.99,,,-99.99,,2013-11-17 04:43:00,
2013-11-16 22:53:00,58.0,55.0,29.49,SSE,157,3.0,-999.0,89,-99.99,,,-99.99,,2013-11-17 04:53:00,
2013-11-16 23:23:00,58.0,55.0,29.50,South,181,3.0,-999.0,89,-99.99,,,-99.99,,2013-11-17 05:23:00,
2013-11-16 23:44:00,58.0,55.0,29.49,SSE,159,4.0,-999.0,89,-99.99,,,-99.99,,2013-11-17 05:44:00,
2013-11-16 23:53:00,58.0,55.0,29.49,South,184,3.0,-999.0,89,-99.99,,,-99.99,,2013-11-17 05:53:00,